sensor_id;sensor_type;location;lat;lon;timestamp;P1;durP1;ratioP1;P2;durP2;ratioP2
50988;SDS011;37008;52.210;21.112;2023-02-18T04:53:12;15.65;;;3.58;;
50988;SDS011;37008;52.210;21.112;2023-02-18T04:55:38;9.52;;;2.55;;
50988;SDS011;37008;52.210;21.112;2023-02-18T04:58:04;10.20;;;2.55;;
50988;SDS011;37008;52.210;21.112;2023-02-18T05:00:29;15.50;;;3.13;;
50988;SDS011;37008;52.210;21.112;2023-02-18T05:02:55;13.10;;;2.65;;
50988;SDS011;37008;52.210;21.112;2023-02-18T05:05:20;13.30;;;3.08;;
50988;SDS011;37008;52.210;21.112;2023-02-18T05:07:46;11.20;;;2.80;;
50988;SDS011;37008;52.210;21.112;2023-02-18T05:10:14;15.77;;;2.92;;
50988;SDS011;37008;52.210;21.112;2023-02-18T05:12:41;15.93;;;2.92;;
50988;SDS011;37008;52.210;21.112;2023-02-18T05:15:07;9.65;;;2.65;;
50988;SDS011;37008;52.210;21.112;2023-02-18T05:17:33;19.00;;;3.28;;
50988;SDS011;37008;52.210;21.112;2023-02-18T05:19:58;12.10;;;2.30;;
50988;SDS011;37008;52.210;21.112;2023-02-18T05:22:24;16.42;;;3.67;;
50988;SDS011;37008;52.210;21.112;2023-02-18T05:24:50;10.45;;;2.90;;
50988;SDS011;37008;52.210;21.112;2023-02-18T05:27:16;13.88;;;3.05;;
50988;SDS011;37008;52.210;21.112;2023-02-18T05:29:41;12.82;;;3.55;;
50988;SDS011;37008;52.210;21.112;2023-02-18T05:32:07;17.17;;;3.55;;
50988;SDS011;37008;52.210;21.112;2023-02-18T05:34:32;15.18;;;4.50;;
50988;SDS011;37008;52.210;21.112;2023-02-18T05:36:58;20.45;;;4.85;;
50988;SDS011;37008;52.210;21.112;2023-02-18T05:39:23;11.77;;;3.50;;
50988;SDS011;37008;52.210;21.112;2023-02-18T05:41:49;15.95;;;3.70;;
50988;SDS011;37008;52.210;21.112;2023-02-18T05:44:14;15.32;;;2.95;;
50988;SDS011;37008;52.210;21.112;2023-02-18T05:47:13;14.60;;;3.25;;
50988;SDS011;37008;52.210;21.112;2023-02-18T05:49:40;15.82;;;2.42;;
50988;SDS011;37008;52.210;21.112;2023-02-18T05:52:06;14.45;;;3.35;;
50988;SDS011;37008;52.210;21.112;2023-02-18T05:54:32;13.70;;;3.17;;
50988;SDS011;37008;52.210;21.112;2023-02-18T05:56:58;11.10;;;2.47;;
50988;SDS011;37008;52.210;21.112;2023-02-18T05:59:23;10.65;;;2.33;;
50988;SDS011;37008;52.210;21.112;2023-02-18T06:01:49;14.73;;;2.67;;
50988;SDS011;37008;52.210;21.112;2023-02-18T06:04:15;12.30;;;2.75;;
50988;SDS011;37008;52.210;21.112;2023-02-18T06:06:40;16.20;;;3.30;;
50988;SDS011;37008;52.210;21.112;2023-02-18T06:09:06;14.82;;;3.15;;
50988;SDS011;37008;52.210;21.112;2023-02-18T06:11:32;22.70;;;3.30;;
50988;SDS011;37008;52.210;21.112;2023-02-18T06:13:58;15.18;;;3.13;;
50988;SDS011;37008;52.210;21.112;2023-02-18T06:16:24;10.57;;;2.78;;
50988;SDS011;37008;52.210;21.112;2023-02-18T06:18:50;13.73;;;2.97;;
50988;SDS011;37008;52.210;21.112;2023-02-18T06:21:16;12.75;;;2.85;;
50988;SDS011;37008;52.210;21.112;2023-02-18T06:23:41;15.18;;;3.15;;
50988;SDS011;37008;52.210;21.112;2023-02-18T06:26:07;11.82;;;2.47;;
50988;SDS011;37008;52.210;21.112;2023-02-18T06:28:32;16.67;;;2.85;;
50988;SDS011;37008;52.210;21.112;2023-02-18T06:30:58;13.27;;;2.47;;
50988;SDS011;37008;52.210;21.112;2023-02-18T06:33:24;14.57;;;3.08;;
50988;SDS011;37008;52.210;21.112;2023-02-18T06:35:56;14.88;;;2.92;;
50988;SDS011;37008;52.210;21.112;2023-02-18T06:38:27;14.73;;;2.83;;
50988;SDS011;37008;52.210;21.112;2023-02-18T06:40:53;11.93;;;3.33;;
50988;SDS011;37008;52.210;21.112;2023-02-18T06:43:19;11.20;;;2.53;;
50988;SDS011;37008;52.210;21.112;2023-02-18T06:45:46;11.65;;;2.60;;
50988;SDS011;37008;52.210;21.112;2023-02-18T06:48:12;15.65;;;3.97;;
50988;SDS011;37008;52.210;21.112;2023-02-18T06:50:38;12.95;;;2.08;;
50988;SDS011;37008;52.210;21.112;2023-02-18T06:53:05;13.75;;;2.92;;
50988;SDS011;37008;52.210;21.112;2023-02-18T06:55:30;11.63;;;2.35;;
50988;SDS011;37008;52.210;21.112;2023-02-18T06:57:56;17.40;;;3.63;;
50988;SDS011;37008;52.210;21.112;2023-02-18T07:00:22;11.88;;;2.80;;
50988;SDS011;37008;52.210;21.112;2023-02-18T07:02:47;19.83;;;2.92;;
50988;SDS011;37008;52.210;21.112;2023-02-18T07:05:13;14.55;;;3.70;;
50988;SDS011;37008;52.210;21.112;2023-02-18T07:07:39;14.65;;;2.90;;
50988;SDS011;37008;52.210;21.112;2023-02-18T07:10:05;14.40;;;2.85;;
50988;SDS011;37008;52.210;21.112;2023-02-18T07:12:31;12.30;;;2.90;;
50988;SDS011;37008;52.210;21.112;2023-02-18T07:14:57;11.95;;;2.90;;
50988;SDS011;37008;52.210;21.112;2023-02-18T07:17:23;11.63;;;2.80;;
50988;SDS011;37008;52.210;21.112;2023-02-18T07:19:48;12.23;;;2.78;;
50988;SDS011;37008;52.210;21.112;2023-02-18T07:22:14;13.70;;;2.85;;
50988;SDS011;37008;52.210;21.112;2023-02-18T07:24:40;11.80;;;3.38;;
50988;SDS011;37008;52.210;21.112;2023-02-18T07:27:05;8.13;;;2.75;;
50988;SDS011;37008;52.210;21.112;2023-02-18T07:29:31;10.15;;;2.50;;
50988;SDS011;37008;52.210;21.112;2023-02-18T07:31:57;15.38;;;3.72;;
50988;SDS011;37008;52.210;21.112;2023-02-18T07:34:22;11.77;;;2.92;;
50988;SDS011;37008;52.210;21.112;2023-02-18T07:36:48;16.05;;;3.13;;
50988;SDS011;37008;52.210;21.112;2023-02-18T07:39:13;15.98;;;3.08;;
50988;SDS011;37008;52.210;21.112;2023-02-18T07:41:39;12.75;;;2.60;;
50988;SDS011;37008;52.210;21.112;2023-02-18T07:44:04;11.30;;;3.28;;
50988;SDS011;37008;52.210;21.112;2023-02-18T07:46:30;12.27;;;2.97;;
50988;SDS011;37008;52.210;21.112;2023-02-18T07:48:56;11.95;;;2.80;;
50988;SDS011;37008;52.210;21.112;2023-02-18T07:51:22;13.43;;;3.08;;
50988;SDS011;37008;52.210;21.112;2023-02-18T07:53:47;13.23;;;2.83;;
50988;SDS011;37008;52.210;21.112;2023-02-18T07:56:13;19.02;;;3.15;;
50988;SDS011;37008;52.210;21.112;2023-02-18T07:58:39;13.57;;;2.58;;
50988;SDS011;37008;52.210;21.112;2023-02-18T08:01:06;12.88;;;2.92;;
50988;SDS011;37008;52.210;21.112;2023-02-18T08:03:33;16.80;;;3.15;;
50988;SDS011;37008;52.210;21.112;2023-02-18T08:05:59;10.40;;;2.45;;
50988;SDS011;37008;52.210;21.112;2023-02-18T08:08:26;12.82;;;2.83;;
50988;SDS011;37008;52.210;21.112;2023-02-18T08:10:53;14.00;;;3.63;;
50988;SDS011;37008;52.210;21.112;2023-02-18T08:13:20;12.35;;;2.92;;
50988;SDS011;37008;52.210;21.112;2023-02-18T08:15:45;18.10;;;3.38;;
50988;SDS011;37008;52.210;21.112;2023-02-18T08:18:14;11.93;;;3.08;;
50988;SDS011;37008;52.210;21.112;2023-02-18T08:20:41;12.07;;;2.75;;
50988;SDS011;37008;52.210;21.112;2023-02-18T08:23:07;16.05;;;2.85;;
50988;SDS011;37008;52.210;21.112;2023-02-18T08:25:34;12.88;;;3.00;;
50988;SDS011;37008;52.210;21.112;2023-02-18T08:27:59;12.48;;;2.72;;
50988;SDS011;37008;52.210;21.112;2023-02-18T08:30:25;14.82;;;2.80;;
50988;SDS011;37008;52.210;21.112;2023-02-18T08:32:51;16.92;;;2.65;;
50988;SDS011;37008;52.210;21.112;2023-02-18T08:35:17;12.35;;;2.70;;
50988;SDS011;37008;52.210;21.112;2023-02-18T08:37:43;14.75;;;3.03;;
50988;SDS011;37008;52.210;21.112;2023-02-18T08:40:10;12.88;;;2.92;;
50988;SDS011;37008;52.210;21.112;2023-02-18T08:42:36;14.63;;;2.92;;
50988;SDS011;37008;52.210;21.112;2023-02-18T08:45:03;12.35;;;2.95;;
50988;SDS011;37008;52.210;21.112;2023-02-18T08:47:29;14.50;;;3.50;;
50988;SDS011;37008;52.210;21.112;2023-02-18T08:49:54;17.65;;;3.50;;
50988;SDS011;37008;52.210;21.112;2023-02-18T08:52:20;16.58;;;4.18;;
50988;SDS011;37008;52.210;21.112;2023-02-18T08:54:46;12.60;;;3.10;;
50988;SDS011;37008;52.210;21.112;2023-02-18T08:57:12;16.77;;;2.97;;
50988;SDS011;37008;52.210;21.112;2023-02-18T08:59:37;11.88;;;3.28;;
50988;SDS011;37008;52.210;21.112;2023-02-18T09:02:03;15.35;;;3.17;;
50988;SDS011;37008;52.210;21.112;2023-02-18T09:04:29;12.63;;;3.03;;
50988;SDS011;37008;52.210;21.112;2023-02-18T09:06:55;14.60;;;3.38;;
50988;SDS011;37008;52.210;21.112;2023-02-18T09:09:20;16.55;;;3.45;;
50988;SDS011;37008;52.210;21.112;2023-02-18T09:11:46;15.15;;;3.58;;
50988;SDS011;37008;52.210;21.112;2023-02-18T09:14:12;9.90;;;2.95;;
50988;SDS011;37008;52.210;21.112;2023-02-18T09:16:38;20.67;;;4.38;;
50988;SDS011;37008;52.210;21.112;2023-02-18T09:19:04;14.95;;;3.40;;
50988;SDS011;37008;52.210;21.112;2023-02-18T09:21:30;16.20;;;3.22;;
50988;SDS011;37008;52.210;21.112;2023-02-18T09:23:56;16.33;;;3.15;;
50988;SDS011;37008;52.210;21.112;2023-02-18T09:26:22;14.40;;;3.20;;
50988;SDS011;37008;52.210;21.112;2023-02-18T09:28:49;13.40;;;3.22;;
50988;SDS011;37008;52.210;21.112;2023-02-18T09:31:20;15.60;;;3.55;;
50988;SDS011;37008;52.210;21.112;2023-02-18T09:33:54;15.63;;;3.28;;
50988;SDS011;37008;52.210;21.112;2023-02-18T09:36:25;16.17;;;4.05;;
50988;SDS011;37008;52.210;21.112;2023-02-18T09:38:51;11.40;;;3.05;;
50988;SDS011;37008;52.210;21.112;2023-02-18T09:41:26;16.55;;;3.67;;
50988;SDS011;37008;52.210;21.112;2023-02-18T09:44:05;12.52;;;3.05;;
50988;SDS011;37008;52.210;21.112;2023-02-18T09:46:50;15.93;;;3.38;;
50988;SDS011;37008;52.210;21.112;2023-02-18T09:49:20;14.27;;;3.67;;
50988;SDS011;37008;52.210;21.112;2023-02-18T09:51:49;13.68;;;2.95;;
50988;SDS011;37008;52.210;21.112;2023-02-18T09:54:16;13.68;;;3.22;;
50988;SDS011;37008;52.210;21.112;2023-02-18T09:56:44;11.18;;;3.33;;
50988;SDS011;37008;52.210;21.112;2023-02-18T09:59:15;18.52;;;3.25;;
50988;SDS011;37008;52.210;21.112;2023-02-18T10:01:43;13.45;;;3.35;;
50988;SDS011;37008;52.210;21.112;2023-02-18T10:04:16;14.93;;;3.88;;
50988;SDS011;37008;52.210;21.112;2023-02-18T10:06:54;13.07;;;2.95;;
50988;SDS011;37008;52.210;21.112;2023-02-18T10:09:22;13.82;;;3.03;;
50988;SDS011;37008;52.210;21.112;2023-02-18T10:11:57;14.52;;;3.45;;
50988;SDS011;37008;52.210;21.112;2023-02-18T10:14:29;11.40;;;3.13;;
50988;SDS011;37008;52.210;21.112;2023-02-18T10:16:55;13.02;;;2.97;;
50988;SDS011;37008;52.210;21.112;2023-02-18T10:19:30;15.55;;;3.35;;
50988;SDS011;37008;52.210;21.112;2023-02-18T10:22:03;13.38;;;3.67;;
50988;SDS011;37008;52.210;21.112;2023-02-18T10:24:31;17.13;;;3.30;;
50988;SDS011;37008;52.210;21.112;2023-02-18T10:26:57;10.80;;;2.97;;
50988;SDS011;37008;52.210;21.112;2023-02-18T10:29:25;21.38;;;3.13;;
50988;SDS011;37008;52.210;21.112;2023-02-18T10:34:30;12.13;;;3.20;;
50988;SDS011;37008;52.210;21.112;2023-02-18T10:37:05;13.93;;;3.00;;
50988;SDS011;37008;52.210;21.112;2023-02-18T10:39:53;15.00;;;3.38;;
50988;SDS011;37008;52.210;21.112;2023-02-18T10:45:35;12.45;;;3.00;;
50988;SDS011;37008;52.210;21.112;2023-02-18T10:48:17;12.13;;;3.63;;
50988;SDS011;37008;52.210;21.112;2023-02-18T10:50:47;15.95;;;3.20;;
50988;SDS011;37008;52.210;21.112;2023-02-18T10:55:50;12.65;;;3.03;;
50988;SDS011;37008;52.210;21.112;2023-02-18T10:58:26;17.58;;;3.58;;
50988;SDS011;37008;52.210;21.112;2023-02-18T11:01:00;11.45;;;3.17;;
50988;SDS011;37008;52.210;21.112;2023-02-18T11:03:51;17.25;;;4.38;;
50988;SDS011;37008;52.210;21.112;2023-02-18T11:06:40;12.43;;;2.90;;
50988;SDS011;37008;52.210;21.112;2023-02-18T11:09:19;12.40;;;3.00;;
50988;SDS011;37008;52.210;21.112;2023-02-18T11:11:57;14.27;;;3.60;;
50988;SDS011;37008;52.210;21.112;2023-02-18T11:14:42;16.13;;;3.83;;
50988;SDS011;37008;52.210;21.112;2023-02-18T11:17:18;14.25;;;3.83;;
50988;SDS011;37008;52.210;21.112;2023-02-18T11:19:50;16.17;;;3.63;;
50988;SDS011;37008;52.210;21.112;2023-02-18T11:22:27;11.93;;;3.30;;
50988;SDS011;37008;52.210;21.112;2023-02-18T11:24:55;15.15;;;3.47;;
50988;SDS011;37008;52.210;21.112;2023-02-18T11:27:44;17.98;;;4.43;;
50988;SDS011;37008;52.210;21.112;2023-02-18T11:30:20;14.02;;;3.63;;
50988;SDS011;37008;52.210;21.112;2023-02-18T11:32:47;17.17;;;3.50;;
50988;SDS011;37008;52.210;21.112;2023-02-18T11:35:17;15.65;;;3.85;;
50988;SDS011;37008;52.210;21.112;2023-02-18T11:37:45;18.67;;;5.40;;
50988;SDS011;37008;52.210;21.112;2023-02-18T11:40:30;18.75;;;3.50;;
50988;SDS011;37008;52.210;21.112;2023-02-18T11:43:04;16.15;;;3.47;;
50988;SDS011;37008;52.210;21.112;2023-02-18T11:45:35;17.52;;;3.47;;
50988;SDS011;37008;52.210;21.112;2023-02-18T11:48:05;11.48;;;3.05;;
50988;SDS011;37008;52.210;21.112;2023-02-18T11:50:33;9.73;;;3.53;;
50988;SDS011;37008;52.210;21.112;2023-02-18T11:53:00;14.10;;;3.85;;
50988;SDS011;37008;52.210;21.112;2023-02-18T11:55:55;14.82;;;3.60;;
50988;SDS011;37008;52.210;21.112;2023-02-18T11:58:22;21.25;;;4.18;;
50988;SDS011;37008;52.210;21.112;2023-02-18T12:00:49;19.60;;;4.35;;
50988;SDS011;37008;52.210;21.112;2023-02-18T12:06:22;11.35;;;3.78;;
50988;SDS011;37008;52.210;21.112;2023-02-18T12:08:56;16.77;;;4.68;;
50988;SDS011;37008;52.210;21.112;2023-02-18T12:11:30;14.18;;;3.42;;
50988;SDS011;37008;52.210;21.112;2023-02-18T12:14:07;15.82;;;3.05;;
50988;SDS011;37008;52.210;21.112;2023-02-18T12:16:42;18.85;;;3.58;;
50988;SDS011;37008;52.210;21.112;2023-02-18T12:19:15;18.15;;;4.03;;
50988;SDS011;37008;52.210;21.112;2023-02-18T12:27:32;13.63;;;3.50;;
50988;SDS011;37008;52.210;21.112;2023-02-18T12:35:44;15.07;;;3.70;;
50988;SDS011;37008;52.210;21.112;2023-02-18T12:41:04;18.30;;;3.78;;
50988;SDS011;37008;52.210;21.112;2023-02-18T12:47:41;15.75;;;3.92;;
50988;SDS011;37008;52.210;21.112;2023-02-18T12:52:47;13.90;;;3.15;;
50988;SDS011;37008;52.210;21.112;2023-02-18T12:55:22;13.90;;;3.75;;
50988;SDS011;37008;52.210;21.112;2023-02-18T12:58:01;15.88;;;3.75;;
50988;SDS011;37008;52.210;21.112;2023-02-18T13:00:42;10.88;;;3.28;;
50988;SDS011;37008;52.210;21.112;2023-02-18T13:09:02;13.77;;;3.05;;
50988;SDS011;37008;52.210;21.112;2023-02-18T13:11:51;15.82;;;3.55;;
50988;SDS011;37008;52.210;21.112;2023-02-18T13:14:24;11.52;;;2.75;;
50988;SDS011;37008;52.210;21.112;2023-02-18T13:16:56;15.02;;;3.13;;
50988;SDS011;37008;52.210;21.112;2023-02-18T13:19:25;14.68;;;3.40;;
50988;SDS011;37008;52.210;21.112;2023-02-18T13:21:57;15.68;;;3.53;;
50988;SDS011;37008;52.210;21.112;2023-02-18T13:24:35;17.80;;;4.20;;
50988;SDS011;37008;52.210;21.112;2023-02-18T13:29:52;18.83;;;3.75;;
50988;SDS011;37008;52.210;21.112;2023-02-18T13:32:36;15.80;;;3.85;;
50988;SDS011;37008;52.210;21.112;2023-02-18T13:37:50;11.60;;;3.58;;
50988;SDS011;37008;52.210;21.112;2023-02-18T13:40:37;12.82;;;3.55;;
50988;SDS011;37008;52.210;21.112;2023-02-18T13:51:10;13.07;;;4.38;;
50988;SDS011;37008;52.210;21.112;2023-02-18T13:53:39;15.13;;;4.00;;
50988;SDS011;37008;52.210;21.112;2023-02-18T13:58:42;19.52;;;5.28;;
50988;SDS011;37008;52.210;21.112;2023-02-18T14:01:21;18.05;;;4.63;;
50988;SDS011;37008;52.210;21.112;2023-02-18T14:07:22;14.45;;;3.72;;
50988;SDS011;37008;52.210;21.112;2023-02-18T14:10:23;18.45;;;4.03;;
50988;SDS011;37008;52.210;21.112;2023-02-18T14:22:49;11.18;;;3.58;;
50988;SDS011;37008;52.210;21.112;2023-02-18T14:27:44;13.52;;;3.65;;
50988;SDS011;37008;52.210;21.112;2023-02-18T14:30:28;11.88;;;3.50;;
50988;SDS011;37008;52.210;21.112;2023-02-18T14:33:03;17.10;;;2.90;;
50988;SDS011;37008;52.210;21.112;2023-02-18T14:35:34;17.80;;;3.88;;
50988;SDS011;37008;52.210;21.112;2023-02-18T14:38:23;15.10;;;4.32;;
50988;SDS011;37008;52.210;21.112;2023-02-18T14:43:46;9.95;;;3.50;;
50988;SDS011;37008;52.210;21.112;2023-02-18T14:46:57;10.85;;;2.80;;
50988;SDS011;37008;52.210;21.112;2023-02-18T14:49:39;13.52;;;3.92;;
50988;SDS011;37008;52.210;21.112;2023-02-18T14:54:59;16.20;;;3.15;;
50988;SDS011;37008;52.210;21.112;2023-02-18T14:57:32;17.38;;;3.50;;
50988;SDS011;37008;52.210;21.112;2023-02-18T15:00:03;15.27;;;4.72;;
50988;SDS011;37008;52.210;21.112;2023-02-18T15:02:33;18.50;;;4.32;;
50988;SDS011;37008;52.210;21.112;2023-02-18T15:05:16;11.02;;;3.38;;
50988;SDS011;37008;52.210;21.112;2023-02-18T15:10:21;14.60;;;3.83;;
50988;SDS011;37008;52.210;21.112;2023-02-18T15:12:49;16.35;;;3.53;;
50988;SDS011;37008;52.210;21.112;2023-02-18T15:15:15;11.63;;;2.75;;
50988;SDS011;37008;52.210;21.112;2023-02-18T15:17:43;12.18;;;3.15;;
50988;SDS011;37008;52.210;21.112;2023-02-18T15:20:12;9.63;;;2.50;;
50988;SDS011;37008;52.210;21.112;2023-02-18T15:22:39;7.72;;;2.38;;
50988;SDS011;37008;52.210;21.112;2023-02-18T15:25:05;8.75;;;2.08;;
50988;SDS011;37008;52.210;21.112;2023-02-18T15:27:32;10.88;;;2.55;;
50988;SDS011;37008;52.210;21.112;2023-02-18T15:30:03;6.68;;;2.00;;
50988;SDS011;37008;52.210;21.112;2023-02-18T15:32:53;10.38;;;2.58;;
50988;SDS011;37008;52.210;21.112;2023-02-18T15:35:21;11.40;;;2.65;;
50988;SDS011;37008;52.210;21.112;2023-02-18T15:37:53;9.60;;;2.50;;
50988;SDS011;37008;52.210;21.112;2023-02-18T15:40:21;13.23;;;4.72;;
50988;SDS011;37008;52.210;21.112;2023-02-18T15:42:51;20.33;;;6.93;;
50988;SDS011;37008;52.210;21.112;2023-02-18T15:45:22;15.18;;;4.32;;
50988;SDS011;37008;52.210;21.112;2023-02-18T15:47:54;13.73;;;4.13;;
50988;SDS011;37008;52.210;21.112;2023-02-18T15:50:22;9.85;;;3.03;;
50988;SDS011;37008;52.210;21.112;2023-02-18T15:52:52;8.02;;;2.58;;
50988;SDS011;37008;52.210;21.112;2023-02-18T15:57:59;9.57;;;2.60;;
50988;SDS011;37008;52.210;21.112;2023-02-18T16:00:29;8.07;;;2.10;;
50988;SDS011;37008;52.210;21.112;2023-02-18T16:05:49;9.90;;;2.58;;
50988;SDS011;37008;52.210;21.112;2023-02-18T16:08:26;8.82;;;3.38;;
50988;SDS011;37008;52.210;21.112;2023-02-18T16:10:55;7.72;;;2.50;;
50988;SDS011;37008;52.210;21.112;2023-02-18T16:13:28;10.60;;;2.58;;
50988;SDS011;37008;52.210;21.112;2023-02-18T16:15:55;6.63;;;2.45;;
50988;SDS011;37008;52.210;21.112;2023-02-18T16:20:54;11.77;;;3.67;;
50988;SDS011;37008;52.210;21.112;2023-02-18T16:23:26;14.63;;;4.28;;
50988;SDS011;37008;52.210;21.112;2023-02-18T16:25:58;15.27;;;4.57;;
50988;SDS011;37008;52.210;21.112;2023-02-18T16:28:34;16.02;;;3.90;;
50988;SDS011;37008;52.210;21.112;2023-02-18T16:31:00;12.43;;;3.50;;
50988;SDS011;37008;52.210;21.112;2023-02-18T16:33:26;20.42;;;5.70;;
50988;SDS011;37008;52.210;21.112;2023-02-18T16:35:51;11.13;;;4.05;;
50988;SDS011;37008;52.210;21.112;2023-02-18T16:38:21;13.80;;;4.43;;
50988;SDS011;37008;52.210;21.112;2023-02-18T16:40:48;22.33;;;6.93;;
50988;SDS011;37008;52.210;21.112;2023-02-18T16:43:23;21.25;;;6.63;;
50988;SDS011;37008;52.210;21.112;2023-02-18T16:45:52;21.70;;;7.18;;
50988;SDS011;37008;52.210;21.112;2023-02-18T16:50:55;13.25;;;4.35;;
50988;SDS011;37008;52.210;21.112;2023-02-18T16:53:23;13.95;;;3.30;;
50988;SDS011;37008;52.210;21.112;2023-02-18T16:55:49;14.23;;;3.30;;
50988;SDS011;37008;52.210;21.112;2023-02-18T16:58:15;20.02;;;3.88;;
50988;SDS011;37008;52.210;21.112;2023-02-18T17:00:41;14.70;;;3.28;;
50988;SDS011;37008;52.210;21.112;2023-02-18T17:03:08;16.38;;;4.03;;
50988;SDS011;37008;52.210;21.112;2023-02-18T17:05:35;13.05;;;3.35;;
50988;SDS011;37008;52.210;21.112;2023-02-18T17:08:19;15.57;;;3.78;;
50988;SDS011;37008;52.210;21.112;2023-02-18T17:13:23;12.70;;;3.50;;
50988;SDS011;37008;52.210;21.112;2023-02-18T17:15:52;15.10;;;3.80;;
50988;SDS011;37008;52.210;21.112;2023-02-18T17:18:19;14.30;;;4.63;;
50988;SDS011;37008;52.210;21.112;2023-02-18T17:20:46;11.88;;;3.30;;
50988;SDS011;37008;52.210;21.112;2023-02-18T17:23:16;9.00;;;3.40;;
50988;SDS011;37008;52.210;21.112;2023-02-18T17:25:45;19.38;;;4.00;;
50988;SDS011;37008;52.210;21.112;2023-02-18T17:28:12;12.43;;;3.97;;
50988;SDS011;37008;52.210;21.112;2023-02-18T17:30:42;16.50;;;3.78;;
50988;SDS011;37008;52.210;21.112;2023-02-18T17:33:10;11.85;;;3.63;;
50988;SDS011;37008;52.210;21.112;2023-02-18T17:35:39;11.68;;;3.75;;
50988;SDS011;37008;52.210;21.112;2023-02-18T17:38:11;9.68;;;3.53;;
50988;SDS011;37008;52.210;21.112;2023-02-18T17:40:38;14.88;;;4.82;;
50988;SDS011;37008;52.210;21.112;2023-02-18T17:43:04;13.65;;;3.58;;
50988;SDS011;37008;52.210;21.112;2023-02-18T17:45:34;13.48;;;3.65;;
50988;SDS011;37008;52.210;21.112;2023-02-18T17:48:04;14.80;;;4.95;;
50988;SDS011;37008;52.210;21.112;2023-02-18T17:50:30;19.02;;;5.22;;
50988;SDS011;37008;52.210;21.112;2023-02-18T17:52:56;12.52;;;4.57;;
50988;SDS011;37008;52.210;21.112;2023-02-18T17:57:49;10.25;;;4.53;;
50988;SDS011;37008;52.210;21.112;2023-02-18T18:00:18;13.88;;;4.60;;
50988;SDS011;37008;52.210;21.112;2023-02-18T18:02:46;14.95;;;4.97;;
50988;SDS011;37008;52.210;21.112;2023-02-18T18:05:14;11.65;;;4.35;;
50988;SDS011;37008;52.210;21.112;2023-02-18T18:07:45;15.60;;;5.43;;
50988;SDS011;37008;52.210;21.112;2023-02-18T18:10:11;13.57;;;4.55;;
50988;SDS011;37008;52.210;21.112;2023-02-18T18:12:38;14.07;;;4.97;;
50988;SDS011;37008;52.210;21.112;2023-02-18T18:15:11;16.15;;;5.60;;
50988;SDS011;37008;52.210;21.112;2023-02-18T18:17:44;13.18;;;5.45;;
50988;SDS011;37008;52.210;21.112;2023-02-18T18:20:09;16.00;;;5.38;;
50988;SDS011;37008;52.210;21.112;2023-02-18T18:22:35;14.20;;;5.85;;
50988;SDS011;37008;52.210;21.112;2023-02-18T18:25:01;10.57;;;5.80;;
50988;SDS011;37008;52.210;21.112;2023-02-18T18:27:28;10.35;;;5.05;;
50988;SDS011;37008;52.210;21.112;2023-02-18T18:29:54;10.10;;;4.38;;
50988;SDS011;37008;52.210;21.112;2023-02-18T18:32:19;10.48;;;4.20;;
50988;SDS011;37008;52.210;21.112;2023-02-18T18:34:46;9.57;;;3.88;;
50988;SDS011;37008;52.210;21.112;2023-02-18T18:37:13;10.02;;;3.47;;
50988;SDS011;37008;52.210;21.112;2023-02-18T18:39:38;7.15;;;3.90;;
50988;SDS011;37008;52.210;21.112;2023-02-18T18:42:04;9.52;;;4.18;;
50988;SDS011;37008;52.210;21.112;2023-02-18T18:44:30;9.88;;;4.28;;
50988;SDS011;37008;52.210;21.112;2023-02-18T18:46:56;9.43;;;4.47;;
50988;SDS011;37008;52.210;21.112;2023-02-18T18:49:21;15.60;;;4.90;;
50988;SDS011;37008;52.210;21.112;2023-02-18T18:51:47;11.50;;;4.78;;
50988;SDS011;37008;52.210;21.112;2023-02-18T18:54:13;12.93;;;5.50;;
50988;SDS011;37008;52.210;21.112;2023-02-18T18:56:38;13.63;;;6.15;;
50988;SDS011;37008;52.210;21.112;2023-02-18T18:59:04;12.80;;;5.68;;
50988;SDS011;37008;52.210;21.112;2023-02-18T19:01:31;9.93;;;6.18;;
50988;SDS011;37008;52.210;21.112;2023-02-18T19:03:57;14.52;;;6.63;;
50988;SDS011;37008;52.210;21.112;2023-02-18T19:06:22;13.32;;;5.60;;
50988;SDS011;37008;52.210;21.112;2023-02-18T19:08:48;8.18;;;5.05;;
50988;SDS011;37008;52.210;21.112;2023-02-18T19:11:14;12.02;;;5.88;;
50988;SDS011;37008;52.210;21.112;2023-02-18T19:13:40;10.32;;;5.45;;
50988;SDS011;37008;52.210;21.112;2023-02-18T19:16:26;10.27;;;5.15;;
50988;SDS011;37008;52.210;21.112;2023-02-18T19:19:01;12.65;;;5.70;;
50988;SDS011;37008;52.210;21.112;2023-02-18T19:21:26;13.20;;;5.15;;
50988;SDS011;37008;52.210;21.112;2023-02-18T19:23:52;11.32;;;5.65;;
50988;SDS011;37008;52.210;21.112;2023-02-18T19:26:18;9.40;;;5.40;;
50988;SDS011;37008;52.210;21.112;2023-02-18T19:28:44;10.70;;;5.85;;
50988;SDS011;37008;52.210;21.112;2023-02-18T19:31:10;11.32;;;5.78;;
50988;SDS011;37008;52.210;21.112;2023-02-18T19:33:35;11.23;;;5.25;;
50988;SDS011;37008;52.210;21.112;2023-02-18T19:36:06;11.70;;;5.95;;
50988;SDS011;37008;52.210;21.112;2023-02-18T19:38:33;10.65;;;5.53;;
50988;SDS011;37008;52.210;21.112;2023-02-18T19:41:04;9.18;;;5.25;;
50988;SDS011;37008;52.210;21.112;2023-02-18T19:43:31;10.02;;;5.25;;
50988;SDS011;37008;52.210;21.112;2023-02-18T19:45:56;11.75;;;5.53;;
50988;SDS011;37008;52.210;21.112;2023-02-18T19:48:22;9.23;;;5.75;;
50988;SDS011;37008;52.210;21.112;2023-02-18T19:50:48;11.00;;;5.65;;
50988;SDS011;37008;52.210;21.112;2023-02-18T19:53:13;8.93;;;5.03;;
50988;SDS011;37008;52.210;21.112;2023-02-18T19:55:39;11.55;;;5.20;;
50988;SDS011;37008;52.210;21.112;2023-02-18T19:58:04;11.27;;;5.82;;
50988;SDS011;37008;52.210;21.112;2023-02-18T20:00:30;11.32;;;5.07;;
50988;SDS011;37008;52.210;21.112;2023-02-18T20:12:17;9.05;;;5.20;;
50988;SDS011;37008;52.210;21.112;2023-02-18T20:14:43;10.52;;;5.70;;
50988;SDS011;37008;52.210;21.112;2023-02-18T20:17:09;8.98;;;5.70;;
50988;SDS011;37008;52.210;21.112;2023-02-18T20:19:35;14.38;;;6.22;;
50988;SDS011;37008;52.210;21.112;2023-02-18T20:22:00;11.75;;;6.35;;
50988;SDS011;37008;52.210;21.112;2023-02-18T20:24:27;10.40;;;6.47;;
50988;SDS011;37008;52.210;21.112;2023-02-18T20:26:54;15.15;;;8.15;;
50988;SDS011;37008;52.210;21.112;2023-02-18T20:29:20;14.98;;;7.53;;
50988;SDS011;37008;52.210;21.112;2023-02-18T20:31:47;14.73;;;7.28;;
50988;SDS011;37008;52.210;21.112;2023-02-18T20:34:14;15.27;;;7.47;;
50988;SDS011;37008;52.210;21.112;2023-02-18T20:36:40;12.70;;;7.88;;
50988;SDS011;37008;52.210;21.112;2023-02-18T20:39:09;9.77;;;6.80;;
50988;SDS011;37008;52.210;21.112;2023-02-18T20:41:35;15.10;;;8.40;;
50988;SDS011;37008;52.210;21.112;2023-02-18T20:44:01;11.52;;;7.13;;
50988;SDS011;37008;52.210;21.112;2023-02-18T20:46:27;11.25;;;7.03;;
50988;SDS011;37008;52.210;21.112;2023-02-18T20:48:53;11.30;;;6.88;;
50988;SDS011;37008;52.210;21.112;2023-02-18T20:51:19;12.93;;;7.68;;
50988;SDS011;37008;52.210;21.112;2023-02-18T20:53:46;15.00;;;9.20;;
50988;SDS011;37008;52.210;21.112;2023-02-18T20:56:13;15.38;;;8.73;;
50988;SDS011;37008;52.210;21.112;2023-02-18T20:58:39;14.60;;;9.30;;
50988;SDS011;37008;52.210;21.112;2023-02-18T21:01:09;13.82;;;8.27;;
50988;SDS011;37008;52.210;21.112;2023-02-18T21:03:36;15.23;;;9.25;;
50988;SDS011;37008;52.210;21.112;2023-02-18T21:06:08;12.32;;;9.18;;
50988;SDS011;37008;52.210;21.112;2023-02-18T21:08:35;16.15;;;9.13;;
50988;SDS011;37008;52.210;21.112;2023-02-18T21:11:03;15.55;;;9.63;;